Latest Weather Observations for Mandurah

IDW60901

Issued at 10:21 pm WST Wednesday 18 July 2018 (issued every 10 minutes, with the page automatically refreshed every 10 minutes)

About weather observations | Map of Perth area stations | Latest observations for Perth area | Other Formats
Station Details ID: 009977 Name: MANDURAH Lat: -32.52 Lon: 115.71 Height: 3.0 m
Data from the previous 72 hours. | See also: Recent months at Mandurah
Date/Time
WST
Temp
°C
App
Temp
°C
Dew
Point
°C
Rel
Hum
%
Delta-T
°C
Wind Press
QNH
hPa
Press
MSL
hPa
Rain since
9am
mm
Dir  Spd
km/h
Gust
km/h
Spd
kts
Gust
kts
18/10:00pm 12.8 11.5 12.5 98 0.2 SE 11 17 6 9 1021.5 1021.5 2.2
18/09:30pm 12.7 11.1 12.7 100 0.0 SSE 13 24 7 13 1021.5 1021.5 2.0
18/09:00pm 13.1 12.0 13.1 100 0.0 S 11 19 6 10 1021.1 1021.1 1.6
18/08:30pm 13.8 13.9 13.8 100 0.0 SSW 6 9 3 5 1020.6 1020.6 0.4
18/08:00pm 13.9 13.2 13.1 95 0.4 S 9 15 5 8 1020.2 1020.2 0.0
18/07:30pm 14.4 13.2 12.8 90 0.9 S 11 19 6 10 1019.7 1019.7 0.0
18/07:00pm 14.6 14.4 13.0 90 0.9 S 6 9 3 5 1019.3 1019.3 0.0
18/06:30pm 14.7 14.9 13.1 90 0.9 S 4 6 2 3 1019.0 1019.0 0.0
18/06:00pm 14.9 13.6 12.6 86 1.3 SSW 11 17 6 9 1018.6 1018.6 0.0
18/05:30pm 15.6 13.8 12.2 80 1.9 SW 13 24 7 13 1018.3 1018.3 0.0
18/05:00pm 16.5 15.1 12.1 75 2.4 SW 11 15 6 8 1018.0 1018.0 0.0
18/04:30pm 16.7 14.8 11.8 73 2.7 SW 13 20 7 11 1017.8 1017.8 0.0
18/04:00pm 16.9 15.1 12.0 73 2.7 SW 13 20 7 11 1017.7 1017.7 0.0
18/03:30pm 17.8 15.3 10.9 64 3.7 WSW 15 22 8 12 1017.6 1017.6 0.0
18/03:00pm 17.8 14.3 10.9 64 3.7 WSW 20 30 11 16 1017.4 1017.4 0.0
18/02:30pm 18.1 14.8 11.0 63 3.8 WSW 19 28 10 15 1017.3 1017.3 0.0
18/02:00pm 17.9 14.5 10.5 62 4.0 WSW 19 28 10 15 1017.3 1017.3 0.0
18/01:30pm 17.0 14.3 12.9 77 2.3 WNW 19 24 10 13 1017.2 1017.2 0.0
18/01:00pm 16.7 13.0 12.7 77 2.2 W 24 32 13 17 1017.4 1017.4 0.0
18/12:30pm 17.9 16.7 12.8 72 2.8 W 11 17 6 9 1017.6 1017.6 0.0
18/12:00pm 17.2 15.4 12.1 72 2.8 WSW 13 20 7 11 1017.9 1017.9 0.0
18/11:30am 17.1 14.0 11.6 70 3.0 SW 19 32 10 17 1017.9 1017.9 0.0
18/11:00am 16.8 13.0 12.3 75 2.5 WSW 24 33 13 18 1018.0 1018.0 0.0
18/10:30am 17.0 14.5 12.3 74 2.6 W 17 22 9 12 1017.9 1017.9 0.0
18/10:00am 15.6 13.6 11.4 76 2.3 WSW 13 26 7 14 1017.8 1017.8 0.0
18/09:30am 16.9 14.1 11.4 70 3.0 WSW 17 26 9 14 1017.4 1017.4 0.0
18/09:00am 16.9 12.7 9.8 63 3.7 W 22 32 12 17 1017.0 1017.0 0.6
18/08:30am 16.4 12.7 10.0 66 3.4 W 20 28 11 15 1016.7 1016.7 0.6
18/08:00am 15.9 11.6 12.1 78 2.1 W 26 37 14 20 1016.6 1016.6 0.6
18/07:30am 15.4 12.8 12.0 80 1.8 W 17 24 9 13 1016.3 1016.3 0.6
18/07:00am 15.6 12.5 12.2 80 1.9 W 20 32 11 17 1016.0 1016.0 0.6
18/06:30am 15.1 10.1 11.1 77 2.1 W 28 39 15 21 1016.0 1016.0 0.6
18/06:00am 14.6 11.3 12.8 89 1.0 W 22 33 12 18 1015.9 1015.9 0.0
18/05:30am 15.2 12.0 11.8 80 1.8 WSW 20 43 11 23 1015.7 1015.7 0.0
18/05:00am 16.5 12.0 10.1 66 3.4 W 24 33 13 18 1015.2 1015.2 0.0
18/04:30am 16.7 10.9 8.1 57 4.4 W 28 39 15 21 1015.0 1015.0 0.0
18/04:00am 16.5 11.0 10.4 67 3.2 W 30 41 16 22 1015.0 1015.0 0.0
18/03:30am 16.6 11.0 8.8 60 4.0 W 28 35 15 19 1015.0 1015.0 0.0
18/03:00am 16.6 10.7 9.1 61 3.9 W 30 41 16 22 1015.0 1015.0 0.0
18/02:30am 16.5 12.0 9.9 65 3.5 W 24 39 13 21 1015.3 1015.3 0.0
18/02:00am 16.3 11.8 10.2 67 3.2 W 24 35 13 19 1015.5 1015.5 0.0
18/01:53am 16.4 10.7 9.8 65 3.5 WNW 30 50 16 27 1015.5 1015.5 0.0
18/01:30am 16.4 11.3 12.0 75 2.4 WNW 30 37 16 20 1015.4 1015.4 0.0
18/01:00am 16.3 13.0 11.5 73 2.6 WNW 20 28 11 15 1015.7 1015.7 0.0
18/12:30am 16.3 11.1 10.4 68 3.1 WNW 28 37 15 20 1015.8 1015.8 0.0
18/12:00am 15.9 10.1 10.7 71 2.8 W 32 44 17 24 1016.0 1016.0 0.0
 
Date/Time
WST
Temp
°C
App
Temp
°C
Dew
Point
°C
Rel
Hum
%
Delta-T
°C
Wind Press
QNH
hPa
Press
MSL
hPa
Rain since
9am
mm
Dir  Spd
km/h
Gust
km/h
Spd
kts
Gust
kts
17/11:30pm 16.4 11.9 11.3 72 2.7 WNW 26 33 14 18 1016.0 1016.0 0.0
17/11:00pm 16.7 11.3 9.6 63 3.7 WNW 28 37 15 20 1016.3 1016.3 0.0
17/10:30pm 16.6 10.9 9.8 64 3.6 W 30 43 16 23 1016.3 1016.3 0.0
17/10:00pm 16.7 11.7 9.4 62 3.8 W 26 37 14 20 1016.5 1016.5 0.0
17/09:30pm 16.7 10.9 9.4 62 3.8 WNW 30 37 16 20 1016.7 1016.7 0.0
17/09:00pm 16.7 11.7 9.6 63 3.7 WNW 26 33 14 18 1016.8 1016.8 0.0
17/08:30pm 16.6 12.1 10.0 65 3.5 W 24 33 13 18 1016.7 1016.7 0.0
17/08:00pm 16.7 12.2 10.1 65 3.5 WNW 24 35 13 19 1016.7 1016.7 0.0
17/07:30pm 16.6 12.1 11.5 72 2.8 WNW 26 32 14 17 1016.6 1016.6 0.0
17/07:00pm 16.5 12.0 11.4 72 2.7 WNW 26 35 14 19 1016.7 1016.7 0.0
17/06:30pm 16.6 12.3 10.7 68 3.1 WNW 24 32 13 17 1016.5 1016.5 0.0
17/06:00pm 16.5 12.9 10.6 68 3.1 WNW 20 32 11 17 1016.4 1016.4 0.0
17/05:30pm 16.6 11.8 10.2 66 3.4 WNW 26 35 14 19 1016.2 1016.2 0.0
17/05:00pm 16.9 11.6 9.8 63 3.7 WNW 28 41 15 22 1016.2 1016.2 0.0
17/04:30pm 16.6 13.0 11.7 73 2.7 WNW 22 30 12 16 1016.2 1016.2 0.0
17/04:00pm 16.6 12.7 10.7 68 3.1 WNW 22 30 12 16 1016.3 1016.3 0.0
17/03:30pm 16.8 13.1 10.2 65 3.5 W 20 32 11 17 1016.3 1016.3 0.0
17/03:00pm 16.8 12.2 11.1 69 3.1 WNW 26 32 14 17 1016.3 1016.3 0.0
17/02:30pm 16.8 12.3 10.0 64 3.6 WNW 24 32 13 17 1016.3 1016.3 0.0
17/02:00pm 16.6 12.1 10.2 66 3.4 WNW 24 35 13 19 1016.3 1016.3 0.0
17/01:30pm 16.6 10.9 9.8 64 3.6 WNW 30 37 16 20 1016.4 1016.4 0.0
17/01:00pm 16.5 11.0 10.4 67 3.2 NW 30 37 16 20 1016.6 1016.6 0.0
17/12:30pm 17.1 13.2 10.9 67 3.3 WNW 22 28 12 15 1016.9 1016.9 0.0
17/12:00pm 16.5 11.2 9.9 65 3.5 WNW 28 35 15 19 1017.2 1017.2 0.0
17/11:30am 16.9 11.8 9.3 61 3.9 WNW 26 32 14 17 1017.5 1017.5 0.0
17/11:00am 16.8 11.8 9.7 63 3.7 W 26 37 14 20 1017.6 1017.6 0.0
17/10:30am 16.8 12.5 9.5 62 3.8 W 22 30 12 16 1017.7 1017.7 0.0
17/10:00am 16.4 12.4 8.9 61 3.8 W 20 28 11 15 1017.6 1017.6 0.0
17/09:30am 16.0 11.2 9.0 63 3.6 WNW 24 33 13 18 1017.4 1017.4 0.0
17/09:00am 16.2 11.2 7.9 58 4.2 NW 24 30 13 16 1017.2 1017.2 0.6
17/08:30am 15.9 10.8 9.1 64 3.5 WNW 26 32 14 17 1016.9 1016.9 0.6
17/08:00am 15.9 11.3 9.6 66 3.3 WNW 24 32 13 17 1016.7 1016.7 0.6
17/07:30am 15.4 12.1 8.2 62 3.6 W 15 20 8 11 1016.7 1016.7 0.6
17/07:00am 15.2 10.7 7.0 58 4.0 W 20 28 11 15 1016.6 1016.6 0.6
17/06:30am 15.1 12.1 7.6 61 3.7 W 13 19 7 10 1016.3 1016.3 0.6
17/06:00am 14.9 11.0 7.2 60 3.8 W 17 22 9 12 1016.0 1016.0 0.6
17/05:30am 15.0 12.1 8.0 63 3.5 WNW 13 28 7 15 1016.0 1016.0 0.6
17/05:00am 14.1 11.9 6.2 59 3.8 W 7 13 4 7 1015.9 1015.9 0.6
17/04:30am 14.7 11.0 6.3 57 4.0 WSW 15 20 8 11 1016.2 1016.2 0.6
17/04:00am 14.7 11.8 6.3 57 4.0 WSW 11 19 6 10 1016.0 1016.0 0.6
17/03:30am 14.8 11.5 6.4 57 4.1 W 13 20 7 11 1016.2 1016.2 0.6
17/03:00am 14.2 12.3 6.8 61 3.6 SSW 6 9 3 5 1016.4 1016.4 0.6
17/02:30am 14.5 11.8 7.3 62 3.5 SW 11 17 6 9 1016.4 1016.4 0.6
17/02:00am 14.5 11.6 6.6 59 3.8 SW 11 17 6 9 1016.4 1016.4 0.6
17/01:30am 14.8 12.2 6.1 56 4.2 SSW 9 15 5 8 1016.2 1016.2 0.6
17/01:00am 14.9 11.6 6.2 56 4.2 SSW 13 22 7 12 1016.2 1016.2 0.6
17/12:30am 14.8 12.1 5.6 54 4.4 SSW 9 13 5 7 1016.2 1016.2 0.6
17/12:00am 15.0 11.6 5.8 54 4.4 SW 13 20 7 11 1016.4 1016.4 0.6
 
Date/Time
WST
Temp
°C
App
Temp
°C
Dew
Point
°C
Rel
Hum
%
Delta-T
°C
Wind Press
QNH
hPa
Press
MSL
hPa
Rain since
9am
mm
Dir  Spd
km/h
Gust
km/h
Spd
kts
Gust
kts
16/11:30pm 15.0 12.5 8.0 63 3.5 SW 11 19 6 10 1016.5 1016.5 0.6
16/11:00pm 15.2 12.4 8.4 64 3.4 SW 13 26 7 14 1016.6 1016.6 0.6
16/10:30pm 14.9 11.8 7.2 60 3.8 SW 13 22 7 12 1016.5 1016.5 0.6
16/10:00pm 14.7 10.6 6.0 56 4.2 SW 17 28 9 15 1016.3 1016.3 0.6
16/09:30pm 15.0 10.9 6.3 56 4.2 SW 17 28 9 15 1016.2 1016.2 0.6
16/09:00pm 14.9 11.5 7.5 61 3.7 SSW 15 26 8 14 1015.9 1015.9 0.6
16/08:30pm 15.3 11.5 7.6 60 3.8 SSW 17 26 9 14 1015.8 1015.8 0.6
16/08:00pm 15.4 11.7 9.5 68 3.0 SW 19 28 10 15 1015.5 1015.5 0.6
16/07:30pm 15.6 12.1 10.2 70 2.8 SW 19 30 10 16 1015.2 1015.2 0.6
16/07:00pm 16.0 11.7 9.4 65 3.4 SW 22 35 12 19 1014.9 1014.9 0.6
16/06:30pm 16.1 11.4 10.6 70 2.9 SW 26 39 14 21 1014.6 1014.6 0.6
16/06:00pm 15.9 11.3 9.8 67 3.2 SW 24 41 13 22 1014.2 1014.2 0.6
16/05:30pm 15.4 11.9 12.2 81 1.7 SW 22 33 12 18 1013.9 1013.9 0.6
16/05:00pm 16.4 12.7 12.6 78 2.1 WSW 24 37 13 20 1013.7 1013.7 0.4
16/04:30pm 15.5 11.0 12.6 83 1.6 SW 28 46 15 25 1013.5 1013.5 0.4
16/04:06pm 15.0 10.4 13.5 91 0.8 WSW 30 50 16 27 1013.3 1013.3 0.4
16/04:00pm 15.1 10.2 13.6 91 0.8 SW 32 50 17 27 1013.4 1013.4 0.4
16/03:30pm 16.6 12.8 12.4 76 2.3 W 24 35 13 19 1012.9 1012.9 0.2
16/03:10pm 17.3 12.8 12.6 74 2.6 WSW 28 54 15 29 1012.9 1012.9 0.2
16/03:00pm 17.6 12.9 12.1 70 3.0 WSW 28 43 15 23 1012.7 1012.7 0.2
16/02:30pm 17.6 13.1 12.5 72 2.8 WSW 28 44 15 24 1012.4 1012.4 0.2
16/02:05pm 17.0 12.3 12.1 73 2.7 W 28 46 15 25 1012.5 1012.5 0.2
16/02:00pm 16.8 12.8 12.9 78 2.2 W 26 44 14 24 1012.4 1012.4 0.0
16/01:43pm 17.2 12.0 12.7 75 2.5 W 32 50 17 27 1012.4 1012.4 0.0
16/01:30pm 17.3 12.5 12.8 75 2.5 W 30 44 16 24 1012.5 1012.5 0.0
16/01:03pm 17.1 11.6 12.0 72 2.8 W 32 56 17 30 1012.3 1012.3 0.0
16/01:00pm 17.2 12.1 11.9 71 2.9 W 30 43 16 23 1012.3 1012.3 0.0
16/12:30pm 15.6 10.4 13.4 87 1.2 W 33 52 18 28 1012.4 1012.4 0.0
16/12:01pm 16.2 11.7 12.6 79 2.0 W 28 52 15 28 1013.1 1013.1 0.0
16/12:00pm 16.6 11.9 12.0 74 2.5 W 28 43 15 23 1013.1 1013.1 0.0
16/11:35am 15.7 10.8 12.5 81 1.8 W 30 48 16 26 1013.3 1013.3 0.0
16/11:30am 16.7 11.1 11.6 72 2.8 W 32 43 17 23 1013.3 1013.3 0.0
16/11:18am 16.7 11.8 11.4 71 2.9 W 28 46 15 25 1013.3 1013.3 0.0
16/11:00am 16.9 11.1 10.7 67 3.3 W 32 44 17 24 1013.3 1013.3 0.0
16/10:39am 16.5 11.8 11.9 74 2.5 W 28 48 15 26 1013.4 1013.4 0.0
16/10:30am 16.3 12.2 12.7 79 2.0 W 26 43 14 23 1013.4 1013.4 0.0
16/10:01am 15.3 10.2 13.2 87 1.2 W 32 52 17 28 1013.4 1013.4 0.0
16/10:00am 15.3 10.1 13.5 89 1.0 W 33 52 18 28 1013.4 1013.4 0.0
16/09:54am 16.5 11.9 13.4 82 1.7 W 30 52 16 28 1013.3 1013.3 0.0
16/09:30am 15.7 10.9 13.0 84 1.5 W 30 46 16 25 1013.0 1013.0 0.0
16/09:00am 15.6 10.5 13.1 85 1.4 W 32 43 17 23 1012.9 1012.9 1.8
16/08:35am 15.4 11.2 13.6 89 1.0 W 28 52 15 28 1013.0 1013.0 1.8
16/08:30am 15.7 11.1 13.5 87 1.2 W 30 43 16 23 1012.9 1012.9 1.8
16/08:22am 15.7 11.3 13.0 84 1.5 W 28 46 15 25 1012.8 1012.8 1.8
16/08:00am 15.4 12.5 13.9 91 0.8 W 22 35 12 19 1012.6 1012.6 1.6
16/07:30am 15.5 11.3 13.5 88 1.1 W 28 48 15 26 1012.3 1012.3 1.6
16/07:29am 15.5 10.8 13.3 87 1.2 W 30 48 16 26 1012.3 1012.3 1.6
16/07:00am 15.6 12.0 14.3 92 0.7 WNW 26 39 14 21 1012.0 1012.0 1.6
16/06:37am 15.5 11.7 14.7 95 0.5 WNW 28 50 15 27 1011.9 1011.9 1.6
16/06:30am 15.1 10.7 14.0 93 0.6 W 30 43 16 23 1011.8 1011.8 1.6
16/06:00am 15.7 12.4 14.1 90 0.9 W 24 37 13 20 1011.9 1011.9 1.4
16/05:30am 15.3 11.0 14.3 94 0.6 W 30 48 16 26 1012.1 1012.1 1.4
16/05:00am 16.0 11.7 14.5 91 0.9 NW 30 39 16 21 1012.0 1012.0 0.8
16/04:30am 16.1 11.5 13.4 84 1.5 WNW 30 50 16 27 1012.2 1012.2 0.8
16/04:29am 16.1 11.8 13.2 83 1.6 W 28 50 15 27 1012.2 1012.2 0.8
16/04:00am 16.2 11.7 12.7 80 1.9 W 28 39 15 21 1012.5 1012.5 0.8
16/03:44am 16.2 12.2 14.0 87 1.2 WNW 28 48 15 26 1012.7 1012.7 0.8
16/03:30am 16.2 11.3 12.6 79 2.0 W 30 46 16 25 1013.0 1013.0 0.8
16/03:24am 16.6 12.2 12.9 79 2.1 W 28 46 15 25 1013.0 1013.0 0.8
16/03:00am 16.1 13.1 13.6 85 1.4 W 22 32 12 17 1013.0 1013.0 0.8
16/02:30am 16.4 12.8 13.1 81 1.8 W 24 37 13 20 1013.2 1013.2 0.8
16/02:00am 15.7 13.3 13.7 88 1.1 W 19 28 10 15 1013.4 1013.4 0.8
16/01:30am 15.4 12.1 14.1 92 0.7 WNW 24 39 13 21 1013.6 1013.6 0.8
16/01:00am 15.3 11.9 13.8 91 0.8 W 24 32 13 17 1013.9 1013.9 0.8
16/12:30am 15.6 11.8 13.6 88 1.1 W 26 37 14 20 1014.2 1014.2 0.8
16/12:02am 15.5 10.8 14.4 93 0.6 WNW 32 52 17 28 1014.5 1014.5 0.6
16/12:00am 15.3 10.5 14.0 92 0.7 WNW 32 41 17 22 1014.5 1014.5 0.6
 
Date/Time
WST
Temp
°C
App
Temp
°C
Dew
Point
°C
Rel
Hum
%
Delta-T
°C
Wind Press
QNH
hPa
Press
MSL
hPa
Rain since
9am
mm
Dir  Spd
km/h
Gust
km/h
Spd
kts
Gust
kts
15/11:30pm 15.7 10.9 13.9 89 1.0 WNW 32 43 17 23 1014.9 1014.9 0.2
15/11:00pm 16.4 11.8 12.4 77 2.2 W 28 39 15 21 1015.2 1015.2 0.2
15/10:30pm 15.6 9.6 13.4 87 1.2 WNW 37 46 20 25 1015.5 1015.5 0.2

Latest Capital City Observations: Canberra | Sydney | Melbourne | Brisbane | Adelaide | Perth | Hobart | Darwin

Other Formats:

Comma delimited format used in spreadsheet applications
http://www.bom.gov.au/fwo/IDW60901/IDW60901.94605.axf

JavaScript Object Notation format (JSON) in row-major order
http://www.bom.gov.au/fwo/IDW60901/IDW60901.94605.json